createdAt,value
2022-11-27T00:00:00.910Z,85.90
2022-11-27T00:01:07.428Z,86.03
2022-11-27T00:02:00.459Z,86.03
2022-11-27T00:03:00.506Z,86.03
2022-11-27T00:04:00.748Z,86.03
2022-11-27T00:05:00.351Z,86.03
2022-11-27T00:06:00.350Z,85.95
2022-11-27T00:07:00.345Z,85.95
2022-11-27T00:08:00.410Z,85.95
2022-11-27T00:09:01.699Z,85.95
2022-11-27T00:10:00.351Z,85.95
2022-11-27T00:11:05.577Z,86.02
2022-11-27T00:12:00.341Z,86.02
2022-11-27T00:13:00.309Z,86.02
2022-11-27T00:14:00.339Z,86.02
2022-11-27T00:15:00.406Z,86.02
2022-11-27T00:16:00.404Z,86.41
2022-11-27T00:17:00.314Z,86.41
2022-11-27T00:18:00.312Z,86.41
2022-11-27T00:19:00.332Z,86.41
2022-11-27T00:20:00.302Z,86.41
2022-11-27T00:21:02.646Z,85.96
2022-11-27T00:22:00.374Z,85.96
2022-11-27T00:23:00.441Z,85.96
2022-11-27T00:24:01.304Z,85.96
2022-11-27T00:25:00.305Z,85.96
2022-11-27T00:26:00.422Z,85.95
2022-11-27T00:27:00.337Z,85.95
2022-11-27T00:28:00.312Z,85.95
2022-11-27T00:29:00.486Z,85.95
2022-11-27T00:30:00.312Z,85.95
2022-11-27T00:31:01.471Z,86.16
2022-11-27T00:32:00.356Z,86.16
2022-11-27T00:33:00.322Z,86.16
2022-11-27T00:34:01.534Z,86.16
2022-11-27T00:35:00.304Z,86.16
2022-11-27T00:36:01.444Z,86.01
2022-11-27T00:37:00.544Z,86.01
2022-11-27T00:38:00.399Z,86.01
2022-11-27T00:39:00.348Z,86.01
2022-11-27T00:40:00.443Z,86.01
2022-11-27T00:41:08.377Z,85.91
2022-11-27T00:42:00.321Z,85.91
2022-11-27T00:43:00.456Z,85.91
2022-11-27T00:44:00.382Z,85.91
2022-11-27T00:45:00.282Z,85.91
2022-11-27T00:46:00.546Z,86.39
2022-11-27T00:47:00.357Z,86.39
2022-11-27T00:48:00.347Z,86.39
2022-11-27T00:49:01.204Z,86.39
2022-11-27T00:50:00.505Z,86.39
2022-11-27T00:51:02.874Z,86.11
2022-11-27T00:52:00.408Z,86.11
2022-11-27T00:53:00.373Z,86.11
2022-11-27T00:54:00.469Z,86.11
2022-11-27T00:55:00.323Z,86.11
2022-11-27T00:56:00.787Z,86.18
2022-11-27T00:57:00.371Z,86.18
2022-11-27T00:58:00.320Z,86.18
2022-11-27T00:59:00.387Z,86.18
2022-11-27T01:00:00.718Z,86.18
2022-11-27T01:01:01.265Z,86.11
2022-11-27T01:02:00.375Z,86.11
2022-11-27T01:03:00.485Z,86.11
2022-11-27T01:04:01.341Z,86.11
2022-11-27T01:05:00.325Z,86.11
2022-11-27T01:06:04.373Z,86.33
2022-11-27T01:07:00.346Z,86.33
2022-11-27T01:08:00.317Z,86.33
2022-11-27T01:09:00.326Z,86.33
2022-11-27T01:10:00.332Z,86.33
2022-11-27T01:11:00.732Z,86.62
2022-11-27T01:12:00.308Z,86.62
2022-11-27T01:13:00.290Z,86.62
2022-11-27T01:14:04.285Z,86.62
2022-11-27T01:15:00.345Z,86.62
2022-11-27T01:16:01.438Z,86.78
2022-11-27T01:17:00.365Z,86.78
2022-11-27T01:18:00.333Z,86.78
2022-11-27T01:19:01.122Z,86.78
2022-11-27T01:20:00.287Z,86.78
2022-11-27T01:21:00.904Z,86.76
2022-11-27T01:22:00.286Z,86.76
2022-11-27T01:23:00.329Z,86.76
2022-11-27T01:24:01.097Z,86.76
2022-11-27T01:25:00.368Z,86.76
2022-11-27T01:26:01.143Z,86.87
2022-11-27T01:27:00.300Z,86.87
2022-11-27T01:28:00.470Z,86.87
2022-11-27T01:29:00.322Z,86.87
2022-11-27T01:30:00.339Z,86.87
2022-11-27T01:31:04.450Z,86.78
2022-11-27T01:32:00.320Z,86.78
2022-11-27T01:33:00.338Z,86.78
2022-11-27T01:34:01.628Z,86.78
2022-11-27T01:35:00.317Z,86.78
2022-11-27T01:36:01.337Z,86.79
2022-11-27T01:37:00.345Z,86.79
2022-11-27T01:38:00.394Z,86.79
2022-11-27T01:39:01.123Z,86.79
2022-11-27T01:40:00.387Z,86.79
2022-11-27T01:41:03.911Z,87.04
2022-11-27T01:42:00.363Z,87.04
2022-11-27T01:43:00.324Z,87.04
2022-11-27T01:44:01.687Z,87.04
2022-11-27T01:45:00.466Z,87.04
2022-11-27T01:46:00.750Z,87.50
2022-11-27T01:47:03.629Z,87.50
2022-11-27T01:48:02.149Z,87.50
2022-11-27T01:49:07.820Z,87.50
2022-11-27T01:50:05.839Z,87.50
2022-11-27T01:51:00.342Z,87.01
2022-11-27T01:52:04.028Z,87.01
2022-11-27T01:53:02.309Z,87.01
2022-11-27T01:54:00.314Z,87.01
2022-11-27T01:55:02.605Z,87.01
2022-11-27T01:56:00.638Z,86.94
2022-11-27T01:57:03.721Z,86.94
2022-11-27T01:58:03.981Z,86.94
2022-11-27T01:59:01.499Z,86.94
2022-11-27T02:00:00.943Z,86.94
2022-11-27T02:01:00.558Z,87.16
2022-11-27T02:02:00.618Z,87.16
2022-11-27T02:03:00.391Z,87.16
2022-11-27T02:04:00.816Z,87.16
2022-11-27T02:05:00.425Z,87.16
2022-11-27T02:06:00.363Z,87.18
2022-11-27T02:07:00.417Z,87.18
2022-11-27T02:08:04.307Z,87.18
2022-11-27T02:09:00.522Z,87.18
2022-11-27T02:10:00.889Z,87.18
2022-11-27T02:11:04.558Z,87.24
2022-11-27T02:12:07.650Z,87.24
2022-11-27T02:13:04.629Z,87.24
2022-11-27T02:14:00.317Z,87.24
2022-11-27T02:15:10.304Z,87.24
2022-11-27T02:16:11.773Z,87.88
2022-11-27T02:17:10.205Z,87.88
2022-11-27T02:18:10.205Z,87.88
2022-11-27T02:19:10.188Z,87.88
2022-11-27T02:20:07.786Z,87.88
2022-11-27T02:21:05.096Z,87.44
2022-11-27T02:22:04.226Z,87.44
2022-11-27T02:23:10.184Z,87.44
2022-11-27T02:24:10.193Z,87.44
2022-11-27T02:25:10.234Z,87.44
2022-11-27T02:26:10.220Z,87.10
2022-11-27T02:27:07.775Z,87.10
2022-11-27T02:28:10.242Z,87.10
2022-11-27T02:29:07.587Z,87.10
2022-11-27T02:30:02.415Z,87.10
2022-11-27T02:31:10.169Z,87.23
2022-11-27T02:32:08.098Z,87.23
2022-11-27T02:33:03.174Z,87.23
2022-11-27T02:34:08.006Z,87.23
2022-11-27T02:35:09.691Z,87.23
2022-11-27T02:36:05.944Z,87.43
2022-11-27T02:37:10.174Z,87.43
2022-11-27T02:38:05.405Z,87.43
2022-11-27T02:39:03.816Z,87.43
2022-11-27T02:40:02.180Z,87.43
2022-11-27T02:41:10.196Z,87.76
2022-11-27T02:42:10.185Z,87.76
2022-11-27T02:43:03.198Z,87.76
2022-11-27T02:44:01.635Z,87.76
2022-11-27T02:45:02.359Z,87.76
2022-11-27T02:46:02.437Z,87.78
2022-11-27T02:47:00.936Z,87.78
2022-11-27T02:48:01.514Z,87.78
2022-11-27T02:49:05.525Z,87.78
2022-11-27T02:50:01.231Z,87.78
2022-11-27T02:51:01.408Z,87.81
2022-11-27T02:52:00.765Z,87.81
2022-11-27T02:53:02.528Z,87.81
2022-11-27T02:54:03.172Z,87.81
2022-11-27T02:55:02.532Z,87.81
2022-11-27T02:56:02.310Z,87.82
2022-11-27T02:57:03.848Z,87.82
2022-11-27T02:58:01.292Z,87.82
2022-11-27T02:59:02.404Z,87.82
2022-11-27T03:00:00.735Z,87.82
2022-11-27T03:01:01.346Z,88.03
2022-11-27T03:02:04.480Z,88.03
2022-11-27T03:03:01.952Z,88.03
2022-11-27T03:04:01.454Z,88.03
2022-11-27T03:05:02.603Z,88.03
2022-11-27T03:06:02.605Z,87.99
2022-11-27T03:07:03.712Z,87.99
2022-11-27T03:08:06.581Z,87.99
2022-11-27T03:09:04.117Z,87.99
2022-11-27T03:10:03.450Z,87.99
2022-11-27T03:11:03.169Z,88.12
2022-11-27T03:12:01.541Z,88.12
2022-11-27T03:13:01.516Z,88.12
2022-11-27T03:14:02.441Z,88.12
2022-11-27T03:15:00.444Z,88.12
2022-11-27T03:16:10.330Z,88.40
2022-11-27T03:17:00.215Z,88.40
2022-11-27T03:18:06.569Z,88.40
2022-11-27T03:19:07.926Z,88.40
2022-11-27T03:20:04.372Z,88.40
2022-11-27T03:21:08.308Z,88.52
2022-11-27T03:22:01.405Z,88.52
2022-11-27T03:23:00.248Z,88.52
2022-11-27T03:24:00.375Z,88.52
2022-11-27T03:25:00.372Z,88.52
2022-11-27T03:26:00.234Z,88.13
2022-11-27T03:27:00.697Z,88.13
2022-11-27T03:28:02.775Z,88.13
2022-11-27T03:29:01.553Z,88.13
2022-11-27T03:30:01.076Z,88.13
2022-11-27T03:31:00.319Z,88.53
2022-11-27T03:32:00.665Z,88.53
2022-11-27T03:33:00.963Z,88.53
2022-11-27T03:34:00.822Z,88.53
2022-11-27T03:35:00.502Z,88.53
2022-11-27T03:36:00.249Z,88.37
2022-11-27T03:37:00.382Z,88.37
2022-11-27T03:38:00.239Z,88.37
2022-11-27T03:39:00.278Z,88.37
2022-11-27T03:40:00.573Z,88.37
2022-11-27T03:41:10.244Z,88.23
2022-11-27T03:42:00.316Z,88.23
2022-11-27T03:43:07.478Z,88.23
2022-11-27T03:44:06.201Z,88.23
2022-11-27T03:45:07.774Z,88.23
2022-11-27T03:46:06.653Z,88.53
2022-11-27T03:47:10.213Z,88.53
2022-11-27T03:48:01.268Z,88.53
2022-11-27T03:49:06.549Z,88.53
2022-11-27T03:50:07.710Z,88.53
2022-11-27T03:51:03.570Z,88.44
2022-11-27T03:52:07.018Z,88.44
2022-11-27T03:53:09.409Z,88.44
2022-11-27T03:54:03.545Z,88.44
2022-11-27T03:55:07.222Z,88.44
2022-11-27T03:56:09.994Z,88.22
2022-11-27T03:57:06.260Z,88.22
2022-11-27T03:58:06.611Z,88.22
2022-11-27T03:59:07.654Z,88.22
2022-11-27T04:00:04.793Z,88.22
2022-11-27T04:01:02.247Z,88.50
2022-11-27T04:02:00.331Z,88.50
2022-11-27T04:03:01.129Z,88.50
2022-11-27T04:04:00.331Z,88.50
2022-11-27T04:05:00.271Z,88.50
2022-11-27T04:06:00.378Z,88.66
2022-11-27T04:07:00.239Z,88.66
2022-11-27T04:08:00.894Z,88.66
2022-11-27T04:09:00.227Z,88.66
2022-11-27T04:10:00.242Z,88.66
2022-11-27T04:11:00.269Z,88.61
2022-11-27T04:12:00.233Z,88.61
2022-11-27T04:13:00.779Z,88.61
2022-11-27T04:14:00.243Z,88.61
2022-11-27T04:15:02.494Z,88.61
2022-11-27T04:16:02.688Z,88.77
2022-11-27T04:17:00.236Z,88.77
2022-11-27T04:18:00.238Z,88.77
2022-11-27T04:19:00.239Z,88.77
2022-11-27T04:20:00.237Z,88.77
2022-11-27T04:21:00.293Z,88.76
2022-11-27T04:22:00.245Z,88.76
2022-11-27T04:23:00.432Z,88.76
2022-11-27T04:24:00.280Z,88.76
2022-11-27T04:25:00.325Z,88.76
2022-11-27T04:26:00.278Z,88.74
2022-11-27T04:27:00.245Z,88.74
2022-11-27T04:28:00.329Z,88.74
2022-11-27T04:29:00.236Z,88.74
2022-11-27T04:30:00.296Z,88.74
2022-11-27T04:31:00.452Z,88.75
2022-11-27T04:32:00.231Z,88.75
2022-11-27T04:33:00.417Z,88.75
2022-11-27T04:34:00.224Z,88.75
2022-11-27T04:35:00.232Z,88.75
2022-11-27T04:36:00.343Z,88.84
2022-11-27T04:37:00.305Z,88.84
2022-11-27T04:38:00.597Z,88.84
2022-11-27T04:39:00.221Z,88.84
2022-11-27T04:40:00.236Z,88.84
2022-11-27T04:41:00.244Z,88.94
2022-11-27T04:42:00.247Z,88.94
2022-11-27T04:43:00.249Z,88.94
2022-11-27T04:44:00.280Z,88.94
2022-11-27T04:45:00.348Z,88.94
2022-11-27T04:46:00.249Z,89.33
2022-11-27T04:47:00.379Z,89.33
2022-11-27T04:48:00.312Z,89.33
2022-11-27T04:49:00.268Z,89.33
2022-11-27T04:50:00.421Z,89.33
2022-11-27T04:51:00.255Z,89.25
2022-11-27T04:52:00.312Z,89.25
2022-11-27T04:53:00.318Z,89.25
2022-11-27T04:54:00.328Z,89.25
2022-11-27T04:55:00.758Z,89.25
2022-11-27T04:56:00.349Z,88.93
2022-11-27T04:57:00.242Z,88.93
2022-11-27T04:58:00.352Z,88.93
2022-11-27T04:59:00.268Z,88.93
2022-11-27T05:00:00.316Z,88.93
2022-11-27T05:01:00.473Z,89.12
2022-11-27T05:02:00.285Z,89.12
2022-11-27T05:03:00.403Z,89.12
2022-11-27T05:04:00.258Z,89.12
2022-11-27T05:05:00.332Z,89.12
2022-11-27T05:06:00.464Z,89.12
2022-11-27T05:07:00.288Z,89.12
2022-11-27T05:08:00.466Z,89.12
2022-11-27T05:09:00.300Z,89.12
2022-11-27T05:10:00.343Z,89.12
2022-11-27T05:11:01.337Z,88.96
2022-11-27T05:12:00.255Z,88.96
2022-11-27T05:13:00.315Z,88.96
2022-11-27T05:14:00.275Z,88.96
2022-11-27T05:15:04.177Z,88.96
2022-11-27T05:16:00.346Z,89.25
2022-11-27T05:17:00.288Z,89.25
2022-11-27T05:18:00.284Z,89.25
2022-11-27T05:19:00.274Z,89.25
2022-11-27T05:20:00.279Z,89.25
2022-11-27T05:21:02.932Z,89.05
2022-11-27T05:22:00.360Z,89.05
2022-11-27T05:23:00.245Z,89.05
2022-11-27T05:24:00.277Z,89.05
2022-11-27T05:25:00.311Z,89.05
2022-11-27T05:26:00.646Z,89.29
2022-11-27T05:27:00.276Z,89.29
2022-11-27T05:28:00.236Z,89.29
2022-11-27T05:29:00.303Z,89.29
2022-11-27T05:30:00.246Z,89.29
2022-11-27T05:31:00.334Z,89.11
2022-11-27T05:32:00.254Z,89.11
2022-11-27T05:33:00.233Z,89.11
2022-11-27T05:34:00.339Z,89.11
2022-11-27T05:35:00.236Z,89.11
2022-11-27T05:36:00.259Z,89.03
2022-11-27T05:37:00.252Z,89.03
2022-11-27T05:38:00.248Z,89.03
2022-11-27T05:39:01.098Z,89.03
2022-11-27T05:40:00.311Z,89.03
2022-11-27T05:41:00.279Z,89.06
2022-11-27T05:42:00.267Z,89.06
2022-11-27T05:43:00.257Z,89.06
2022-11-27T05:44:00.597Z,89.06
2022-11-27T05:45:00.235Z,89.06
2022-11-27T05:46:05.220Z,89.59
2022-11-27T05:47:00.317Z,89.59
2022-11-27T05:48:00.257Z,89.59
2022-11-27T05:49:00.254Z,89.59
2022-11-27T05:50:00.257Z,89.59
2022-11-27T05:51:00.404Z,89.37
2022-11-27T05:52:00.241Z,89.37
2022-11-27T05:53:00.261Z,89.37
2022-11-27T05:54:00.255Z,89.37
2022-11-27T05:55:00.282Z,89.37
2022-11-27T05:56:01.513Z,89.28
2022-11-27T05:57:00.282Z,89.28
2022-11-27T05:58:00.247Z,89.28
2022-11-27T05:59:00.249Z,89.28
2022-11-27T06:00:00.338Z,89.28
2022-11-27T06:01:00.686Z,89.28
2022-11-27T06:02:00.434Z,89.28
2022-11-27T06:03:00.462Z,89.28
2022-11-27T06:04:00.262Z,89.28
2022-11-27T06:05:00.254Z,89.28
2022-11-27T06:06:10.186Z,89.09
2022-11-27T06:07:00.353Z,89.09
2022-11-27T06:08:00.327Z,89.09
2022-11-27T06:09:00.353Z,89.09
2022-11-27T06:10:00.256Z,89.09
2022-11-27T06:11:04.582Z,88.97
2022-11-27T06:12:00.224Z,88.97
2022-11-27T06:13:00.283Z,88.97
2022-11-27T06:14:00.296Z,88.97
2022-11-27T06:15:00.260Z,88.97
2022-11-27T06:16:04.658Z,89.42
2022-11-27T06:17:00.982Z,89.42
2022-11-27T06:18:00.268Z,89.42
2022-11-27T06:19:00.237Z,89.42
2022-11-27T06:20:00.263Z,89.42
2022-11-27T06:21:00.271Z,89.31
2022-11-27T06:22:00.245Z,89.31
2022-11-27T06:23:00.265Z,89.31
2022-11-27T06:24:00.277Z,89.31
2022-11-27T06:25:00.258Z,89.31
2022-11-27T06:26:10.220Z,89.29
2022-11-27T06:27:00.306Z,89.29
2022-11-27T06:28:00.314Z,89.29
2022-11-27T06:29:00.279Z,89.29
2022-11-27T06:30:00.432Z,89.29
2022-11-27T06:31:03.904Z,89.35
2022-11-27T06:32:00.314Z,89.35
2022-11-27T06:33:00.249Z,89.35
2022-11-27T06:34:00.887Z,89.35
2022-11-27T06:35:00.305Z,89.35
2022-11-27T06:36:00.586Z,89.26
2022-11-27T06:37:00.249Z,89.26
2022-11-27T06:38:00.238Z,89.26
2022-11-27T06:39:00.311Z,89.26
2022-11-27T06:40:00.277Z,89.26
2022-11-27T06:41:01.357Z,89.18
2022-11-27T06:42:00.257Z,89.18
2022-11-27T06:43:00.250Z,89.18
2022-11-27T06:44:00.981Z,89.18
2022-11-27T06:45:00.246Z,89.18
2022-11-27T06:46:00.974Z,89.54
2022-11-27T06:47:00.280Z,89.54
2022-11-27T06:48:00.243Z,89.54
2022-11-27T06:49:00.273Z,89.54
2022-11-27T06:50:00.285Z,89.54
2022-11-27T06:51:01.229Z,89.40
2022-11-27T06:52:00.278Z,89.40
2022-11-27T06:53:00.230Z,89.40
2022-11-27T06:54:00.901Z,89.40
2022-11-27T06:55:00.233Z,89.40
2022-11-27T06:56:02.183Z,89.47
2022-11-27T06:57:00.286Z,89.47
2022-11-27T06:58:00.233Z,89.47
2022-11-27T06:59:00.513Z,89.47
2022-11-27T07:00:00.309Z,89.47
2022-11-27T07:01:01.559Z,89.49
2022-11-27T07:02:00.319Z,89.49
2022-11-27T07:03:00.263Z,89.49
2022-11-27T07:04:00.220Z,89.49
2022-11-27T07:05:00.264Z,89.49
2022-11-27T07:06:00.849Z,89.57
2022-11-27T07:07:00.283Z,89.57
2022-11-27T07:08:00.303Z,89.57
2022-11-27T07:09:00.232Z,89.57
2022-11-27T07:10:00.292Z,89.57
2022-11-27T07:11:02.002Z,89.63
2022-11-27T07:12:00.243Z,89.63
2022-11-27T07:13:00.241Z,89.63
2022-11-27T07:14:01.141Z,89.63
2022-11-27T07:15:04.037Z,89.63
2022-11-27T07:16:02.305Z,89.86
2022-11-27T07:17:00.267Z,89.86
2022-11-27T07:18:00.433Z,89.86
2022-11-27T07:19:01.805Z,89.86
2022-11-27T07:20:00.244Z,89.86
2022-11-27T07:21:00.260Z,89.93
2022-11-27T07:22:00.227Z,89.93
2022-11-27T07:23:00.268Z,89.93
2022-11-27T07:24:00.456Z,89.93
2022-11-27T07:25:00.242Z,89.93
2022-11-27T07:26:10.234Z,89.81
2022-11-27T07:27:00.248Z,89.81
2022-11-27T07:28:00.226Z,89.81
2022-11-27T07:29:00.242Z,89.81
2022-11-27T07:30:00.436Z,89.81
2022-11-27T07:31:00.422Z,89.72
2022-11-27T07:32:00.355Z,89.72
2022-11-27T07:33:00.221Z,89.72
2022-11-27T07:34:00.230Z,89.72
2022-11-27T07:35:00.266Z,89.72
2022-11-27T07:36:01.806Z,89.63
2022-11-27T07:37:00.232Z,89.63
2022-11-27T07:38:00.232Z,89.63
2022-11-27T07:39:00.224Z,89.63
2022-11-27T07:40:03.211Z,89.63
2022-11-27T07:41:02.323Z,89.52
2022-11-27T07:42:16.765Z,89.52
2022-11-27T07:43:00.243Z,89.52
2022-11-27T07:44:00.243Z,89.52
2022-11-27T07:45:00.235Z,89.52
2022-11-27T07:46:04.443Z,89.76
2022-11-27T07:47:00.243Z,89.76
2022-11-27T07:48:00.247Z,89.76
2022-11-27T07:49:00.254Z,89.76
2022-11-27T07:50:00.408Z,89.76
2022-11-27T07:51:00.282Z,89.77
2022-11-27T07:52:00.248Z,89.77
2022-11-27T07:53:00.231Z,89.77
2022-11-27T07:54:00.337Z,89.77
2022-11-27T07:55:00.317Z,89.77
2022-11-27T07:56:00.252Z,89.63
2022-11-27T07:57:00.421Z,89.63
2022-11-27T07:58:00.262Z,89.63
2022-11-27T07:59:00.260Z,89.63
2022-11-27T08:00:00.371Z,89.63
2022-11-27T08:01:00.339Z,89.67
2022-11-27T08:02:00.279Z,89.67
2022-11-27T08:03:00.374Z,89.67
2022-11-27T08:04:00.230Z,89.67
2022-11-27T08:05:00.415Z,89.67
2022-11-27T08:06:00.383Z,89.54
2022-11-27T08:07:00.227Z,89.54
2022-11-27T08:08:00.600Z,89.54
2022-11-27T08:09:00.265Z,89.54
2022-11-27T08:10:00.282Z,89.54
2022-11-27T08:11:00.251Z,89.59
2022-11-27T08:12:00.269Z,89.59
2022-11-27T08:13:00.254Z,89.59
2022-11-27T08:14:02.828Z,89.59
2022-11-27T08:15:00.328Z,89.59
2022-11-27T08:16:00.329Z,89.74
2022-11-27T08:17:00.251Z,89.74
2022-11-27T08:18:00.233Z,89.74
2022-11-27T08:19:00.283Z,89.74
2022-11-27T08:20:00.506Z,89.74
2022-11-27T08:21:00.245Z,89.79
2022-11-27T08:22:00.242Z,89.79
2022-11-27T08:23:02.945Z,89.79
2022-11-27T08:24:00.233Z,89.79
2022-11-27T08:25:00.257Z,89.79
2022-11-27T08:26:03.280Z,89.75
2022-11-27T08:27:00.264Z,89.75
2022-11-27T08:28:00.232Z,89.75
2022-11-27T08:29:00.313Z,89.75
2022-11-27T08:30:00.249Z,89.75
2022-11-27T08:31:00.890Z,89.80
2022-11-27T08:32:00.320Z,89.80
2022-11-27T08:33:00.229Z,89.80
2022-11-27T08:34:00.236Z,89.80
2022-11-27T08:35:00.288Z,89.80
2022-11-27T08:36:00.720Z,89.85
2022-11-27T08:37:00.288Z,89.85
2022-11-27T08:38:00.238Z,89.85
2022-11-27T08:39:00.298Z,89.85
2022-11-27T08:40:00.437Z,89.85
2022-11-27T08:41:01.212Z,89.45
2022-11-27T08:42:00.250Z,89.45
2022-11-27T08:43:00.237Z,89.45
2022-11-27T08:44:00.238Z,89.45
2022-11-27T08:45:00.228Z,89.45
2022-11-27T08:46:04.531Z,89.62
2022-11-27T08:47:00.227Z,89.62
2022-11-27T08:48:00.323Z,89.62
2022-11-27T08:49:00.250Z,89.62
2022-11-27T08:50:00.238Z,89.62
2022-11-27T08:51:04.034Z,89.51
2022-11-27T08:52:00.222Z,89.51
2022-11-27T08:53:00.243Z,89.51
2022-11-27T08:54:00.244Z,89.51
2022-11-27T08:55:00.276Z,89.51
2022-11-27T08:56:04.074Z,89.37
2022-11-27T08:57:00.278Z,89.37
2022-11-27T08:58:00.236Z,89.37
2022-11-27T08:59:00.526Z,89.37
2022-11-27T09:00:00.864Z,89.37
2022-11-27T09:01:05.950Z,89.34
2022-11-27T09:02:00.243Z,89.34
2022-11-27T09:03:00.569Z,89.34
2022-11-27T09:04:00.619Z,89.34
2022-11-27T09:05:00.234Z,89.34
2022-11-27T09:06:00.281Z,89.25
2022-11-27T09:07:00.222Z,89.25
2022-11-27T09:08:00.305Z,89.25
2022-11-27T09:09:01.245Z,89.25
2022-11-27T09:10:00.233Z,89.25
2022-11-27T09:11:00.234Z,89.34
2022-11-27T09:12:00.241Z,89.34
2022-11-27T09:13:00.265Z,89.34
2022-11-27T09:14:01.059Z,89.34
2022-11-27T09:15:00.361Z,89.34
2022-11-27T09:16:00.489Z,89.54
2022-11-27T09:17:00.316Z,89.54
2022-11-27T09:18:00.252Z,89.54
2022-11-27T09:19:00.305Z,89.54
2022-11-27T09:20:00.222Z,89.54
2022-11-27T09:21:01.649Z,89.46
2022-11-27T09:22:00.277Z,89.46
2022-11-27T09:23:00.236Z,89.46
2022-11-27T09:24:00.907Z,89.46
2022-11-27T09:25:00.432Z,89.46
2022-11-27T09:26:01.117Z,89.46
2022-11-27T09:27:00.272Z,89.46
2022-11-27T09:28:00.238Z,89.46
2022-11-27T09:29:00.362Z,89.46
2022-11-27T09:30:00.241Z,89.46
2022-11-27T09:31:01.877Z,89.49
2022-11-27T09:32:00.508Z,89.49
2022-11-27T09:33:00.242Z,89.49
2022-11-27T09:34:00.238Z,89.49
2022-11-27T09:35:00.372Z,89.49
2022-11-27T09:36:04.587Z,89.55
2022-11-27T09:37:00.292Z,89.55
2022-11-27T09:38:00.227Z,89.55
2022-11-27T09:39:00.243Z,89.55
2022-11-27T09:40:00.310Z,89.55
2022-11-27T09:41:10.191Z,89.57
2022-11-27T09:42:02.474Z,89.57
2022-11-27T09:43:01.800Z,89.57
2022-11-27T09:44:02.557Z,89.57
2022-11-27T09:45:02.223Z,89.57
2022-11-27T09:46:03.917Z,89.78
2022-11-27T09:47:10.167Z,89.78
2022-11-27T09:48:01.422Z,89.78
2022-11-27T09:49:01.882Z,89.78
2022-11-27T09:50:10.180Z,89.78
2022-11-27T09:51:02.791Z,89.88
2022-11-27T09:52:06.677Z,89.88
2022-11-27T09:53:04.240Z,89.88
2022-11-27T09:54:00.216Z,89.88
2022-11-27T09:55:01.404Z,89.88
2022-11-27T09:56:03.538Z,89.69
2022-11-27T09:57:00.498Z,89.69
2022-11-27T09:58:03.429Z,89.69
2022-11-27T09:59:01.209Z,89.69
2022-11-27T10:00:01.899Z,89.69
2022-11-27T10:01:00.665Z,89.49
2022-11-27T10:02:00.407Z,89.49
2022-11-27T10:03:00.511Z,89.49
2022-11-27T10:04:00.527Z,89.49
2022-11-27T10:05:14.008Z,89.49
2022-11-27T10:06:10.240Z,89.58
2022-11-27T10:07:10.285Z,89.58
2022-11-27T10:08:06.377Z,89.58
2022-11-27T10:09:10.170Z,89.58
2022-11-27T10:10:10.109Z,89.58
2022-11-27T10:11:07.780Z,89.44
2022-11-27T10:12:08.667Z,89.44
2022-11-27T10:13:10.155Z,89.44
2022-11-27T10:14:10.156Z,89.44
2022-11-27T10:15:00.220Z,89.44
2022-11-27T10:16:10.224Z,89.59
2022-11-27T10:17:09.036Z,89.59
2022-11-27T10:18:09.404Z,89.59
2022-11-27T10:19:07.212Z,89.59
2022-11-27T10:20:00.227Z,89.59
2022-11-27T10:21:05.259Z,89.52
2022-11-27T10:22:03.530Z,89.52
2022-11-27T10:23:10.155Z,89.52
2022-11-27T10:24:05.069Z,89.52
2022-11-27T10:25:01.286Z,89.52
2022-11-27T10:26:02.891Z,89.24
2022-11-27T10:27:00.719Z,89.24
2022-11-27T10:28:10.164Z,89.24
2022-11-27T10:29:08.369Z,89.24
2022-11-27T10:30:00.904Z,89.24
2022-11-27T10:31:02.430Z,89.02
2022-11-27T10:32:26.721Z,89.02
2022-11-27T10:33:01.240Z,89.02
2022-11-27T10:34:01.734Z,89.02
2022-11-27T10:35:03.400Z,89.02
2022-11-27T10:36:00.276Z,88.82
2022-11-27T10:37:01.637Z,88.82
2022-11-27T10:38:10.161Z,88.82
2022-11-27T10:39:01.331Z,88.82
2022-11-27T10:40:04.647Z,88.82
2022-11-27T10:41:18.632Z,88.66
2022-11-27T10:42:03.866Z,88.66
2022-11-27T10:43:01.236Z,88.66
2022-11-27T10:44:07.675Z,88.66
2022-11-27T10:45:02.468Z,88.66
2022-11-27T10:46:04.068Z,88.95
2022-11-27T10:47:03.003Z,88.95
2022-11-27T10:48:00.239Z,88.95
2022-11-27T10:49:00.241Z,88.95
2022-11-27T10:50:00.298Z,88.95
2022-11-27T10:51:00.344Z,88.89
2022-11-27T10:52:00.225Z,88.89
2022-11-27T10:53:02.412Z,88.89
2022-11-27T10:54:02.557Z,88.89
2022-11-27T10:55:02.523Z,88.89
2022-11-27T10:56:10.156Z,88.83
2022-11-27T10:57:00.278Z,88.83
2022-11-27T10:58:10.144Z,88.83
2022-11-27T10:59:01.915Z,88.83
2022-11-27T11:00:01.285Z,88.83
2022-11-27T11:01:02.927Z,88.60
2022-11-27T11:02:00.844Z,88.60
2022-11-27T11:03:01.326Z,88.60
2022-11-27T11:04:18.699Z,88.60
2022-11-27T11:05:32.830Z,88.60
2022-11-27T11:06:20.187Z,88.64
2022-11-27T11:07:00.613Z,88.64
2022-11-27T11:08:03.390Z,88.64
2022-11-27T11:09:02.354Z,88.64
2022-11-27T11:10:00.663Z,88.64
2022-11-27T11:11:05.585Z,88.02
2022-11-27T11:12:10.148Z,88.02
2022-11-27T11:13:04.455Z,88.02
2022-11-27T11:14:00.242Z,88.02
2022-11-27T11:15:00.263Z,88.02
2022-11-27T11:16:03.549Z,88.07
2022-11-27T11:17:00.336Z,88.07
2022-11-27T11:18:00.282Z,88.07
2022-11-27T11:19:00.278Z,88.07
2022-11-27T11:20:10.164Z,88.07
2022-11-27T11:21:01.588Z,87.81
2022-11-27T11:22:03.984Z,87.81
2022-11-27T11:23:00.276Z,87.81
2022-11-27T11:24:01.917Z,87.81
2022-11-27T11:25:00.742Z,87.81
2022-11-27T11:26:02.154Z,87.35
2022-11-27T11:27:04.014Z,87.35
2022-11-27T11:28:00.281Z,87.35
2022-11-27T11:29:01.933Z,87.35
2022-11-27T11:30:01.809Z,87.35
2022-11-27T11:31:02.850Z,86.91
2022-11-27T11:32:04.315Z,86.91
2022-11-27T11:33:00.919Z,86.91
2022-11-27T11:34:02.318Z,86.91
2022-11-27T11:35:03.529Z,86.91
2022-11-27T11:36:07.437Z,86.71
2022-11-27T11:37:00.220Z,86.71
2022-11-27T11:38:02.264Z,86.71
2022-11-27T11:39:00.276Z,86.71
2022-11-27T11:40:03.600Z,86.71
2022-11-27T11:41:03.040Z,86.20
2022-11-27T11:42:07.197Z,86.20
2022-11-27T11:43:01.780Z,86.20
2022-11-27T11:44:01.080Z,86.20
2022-11-27T11:45:03.607Z,86.20
2022-11-27T11:46:05.326Z,85.85
2022-11-27T11:47:00.302Z,85.85
2022-11-27T11:48:02.576Z,85.85
2022-11-27T11:49:03.861Z,85.85
2022-11-27T11:50:00.282Z,85.85
2022-11-27T11:51:06.960Z,85.76
2022-11-27T11:52:00.261Z,85.76
2022-11-27T11:53:04.316Z,85.76
2022-11-27T11:54:06.297Z,85.76
2022-11-27T11:55:00.215Z,85.76
2022-11-27T11:56:10.162Z,85.29
2022-11-27T11:57:02.045Z,85.29
2022-11-27T11:58:01.284Z,85.29
2022-11-27T11:59:01.235Z,85.29
2022-11-27T12:00:00.260Z,85.29
2022-11-27T12:01:26.501Z,85.13
2022-11-27T12:02:10.234Z,85.13
2022-11-27T12:03:05.630Z,85.13
2022-11-27T12:04:10.251Z,85.13
2022-11-27T12:05:10.187Z,85.13
2022-11-27T12:06:00.212Z,85.01
2022-11-27T12:07:03.545Z,85.01
2022-11-27T12:08:10.253Z,85.01
2022-11-27T12:09:03.509Z,85.01
2022-11-27T12:10:10.215Z,85.01
2022-11-27T12:11:10.259Z,84.87
2022-11-27T12:12:10.155Z,84.87
2022-11-27T12:13:10.168Z,84.87
2022-11-27T12:14:06.534Z,84.87
2022-11-27T12:15:00.243Z,84.87
2022-11-27T12:16:10.202Z,84.67
2022-11-27T12:17:10.165Z,84.67
2022-11-27T12:18:06.184Z,84.67
2022-11-27T12:19:08.376Z,84.67
2022-11-27T12:20:10.191Z,84.67
2022-11-27T12:21:10.175Z,84.60
2022-11-27T12:22:01.230Z,84.60
2022-11-27T12:23:03.496Z,84.60
2022-11-27T12:24:00.241Z,84.60
2022-11-27T12:25:09.492Z,84.60
2022-11-27T12:26:04.710Z,84.42
2022-11-27T12:27:10.177Z,84.42
2022-11-27T12:28:00.305Z,84.42
2022-11-27T12:29:10.160Z,84.42
2022-11-27T12:30:07.734Z,84.42
2022-11-27T12:31:05.475Z,84.04
2022-11-27T12:32:10.194Z,84.04
2022-11-27T12:33:00.259Z,84.04
2022-11-27T12:34:04.857Z,84.04
2022-11-27T12:35:06.329Z,84.04
2022-11-27T12:36:00.235Z,83.54
2022-11-27T12:37:13.915Z,83.54
2022-11-27T12:38:10.168Z,83.54
2022-11-27T12:39:01.252Z,83.54
2022-11-27T12:40:10.189Z,83.54
2022-11-27T12:41:10.164Z,83.32
2022-11-27T12:42:00.232Z,83.32
2022-11-27T12:43:00.270Z,83.32
2022-11-27T12:44:00.501Z,83.32
2022-11-27T12:45:05.179Z,83.32
2022-11-27T12:46:04.888Z,82.83
2022-11-27T12:47:03.492Z,82.83
2022-11-27T12:48:04.643Z,82.83
2022-11-27T12:49:04.874Z,82.83
2022-11-27T12:50:04.786Z,82.83
2022-11-27T12:51:02.895Z,82.73
2022-11-27T12:52:08.224Z,82.73